German Valley, Illinois
Current Conditions -  °F | °C
As of 2:55 AM on Wednesday 28 Jan 2015 (Local Time) from KFEP Reporting Station
Overcast Overcast  
Wind Chill: 13°   Ceiling: 1700
Heat Index: 21°   Visibility: 10mi
Dew Point: 17°   Wind: 6mph
Humidity: 86%   Direction: 160°SSE
Pressure: 30.24"   Gusts: NA
Location:  42.22°N, 89.47°W
Report Text: KFEP 280855Z AUTO 16005KT 10SM OVC017 M06/M08 A3024 RMK AO2 T10611081
Loading
Personal Weather Stations






























Interactive Weather Map New forecast layout! Learn more

10-Day Weather Forecast

Advertisements
Track Severe Weather on mobile